createdAt,value
2019-02-25T00:00:59.230Z,63.17
2019-02-25T00:03:28.325Z,64.17
2019-02-25T00:05:57.419Z,64.10
2019-02-25T00:08:26.513Z,63.60
2019-02-25T00:10:55.506Z,63.97
2019-02-25T00:13:24.600Z,71.23
2019-02-25T00:15:53.594Z,67.50
2019-02-25T00:18:22.685Z,66.63
2019-02-25T00:20:51.781Z,68.03
2019-02-25T00:23:20.877Z,69.83
2019-02-25T00:25:49.970Z,68.60
2019-02-25T00:28:19.063Z,69.83
2019-02-25T00:30:48.172Z,68.13
2019-02-25T00:33:17.254Z,68.97
2019-02-25T00:35:46.248Z,68.47
2019-02-25T00:38:15.344Z,71.17
2019-02-25T00:40:44.436Z,74.23
2019-02-25T00:43:13.531Z,77.13
2019-02-25T00:45:42.421Z,65.83
2019-02-25T00:48:11.514Z,69.90
2019-02-25T00:50:40.496Z,69.20
2019-02-25T00:53:09.493Z,70.07
2019-02-25T00:55:38.491Z,78.90
2019-02-25T00:58:07.481Z,77.67
2019-02-25T01:00:36.876Z,77.30
2019-02-25T01:03:06.385Z,84.73
2019-02-25T01:05:35.485Z,80.00
2019-02-25T01:08:04.984Z,84.07
2019-02-25T01:10:33.877Z,93.00
2019-02-25T01:13:02.867Z,93.00
2019-02-25T01:15:31.860Z,99.00
2019-02-25T01:18:00.861Z,100.80
2019-02-25T01:20:29.946Z,101.20
2019-02-25T01:22:59.041Z,108.53
2019-02-25T01:25:28.137Z,105.67
2019-02-25T01:27:57.018Z,104.77
2019-02-25T01:30:26.016Z,108.53
2019-02-25T01:32:54.906Z,90.90
2019-02-25T01:35:24.001Z,81.20
2019-02-25T01:37:52.985Z,77.53
2019-02-25T01:40:21.990Z,81.47
2019-02-25T01:42:50.977Z,80.10
2019-02-25T01:45:20.705Z,82.77
2019-02-25T01:47:49.669Z,80.97
2019-02-25T01:50:18.670Z,81.37
2019-02-25T01:52:47.765Z,85.67
2019-02-25T01:55:16.880Z,90.87
2019-02-25T01:57:45.853Z,85.13
2019-02-25T02:00:18.510Z,85.40
2019-02-25T02:02:47.831Z,74.40
2019-02-25T02:05:17.027Z,81.30
2019-02-25T02:07:46.122Z,93.73
2019-02-25T02:10:18.597Z,99.20
2019-02-25T02:12:47.691Z,96.33
2019-02-25T02:15:23.035Z,91.80
2019-02-25T02:17:52.024Z,98.00
2019-02-25T02:20:21.015Z,101.30
2019-02-25T02:22:50.012Z,103.20
2019-02-25T02:25:19.100Z,105.17
2019-02-25T02:27:48.195Z,107.53
2019-02-25T02:30:18.732Z,95.70
2019-02-25T02:32:47.818Z,92.60
2019-02-25T02:35:16.918Z,91.17
2019-02-25T02:37:46.022Z,83.20
2019-02-25T02:40:15.305Z,88.27
2019-02-25T02:42:58.740Z,89.20
2019-02-25T02:45:30.809Z,95.80
2019-02-25T02:48:11.572Z,86.43
2019-02-25T02:50:40.767Z,86.30
2019-02-25T02:53:09.752Z,93.57
2019-02-25T02:55:38.741Z,95.43
2019-02-25T02:58:07.845Z,95.20
2019-02-25T03:00:36.941Z,100.40
2019-02-25T03:03:06.032Z,96.63
2019-02-25T03:05:35.131Z,100.37
2019-02-25T03:08:04.223Z,105.93
2019-02-25T03:10:33.323Z,89.60
2019-02-25T03:13:02.410Z,84.67
2019-02-25T03:15:31.409Z,87.93
2019-02-25T03:18:00.395Z,78.77
2019-02-25T03:20:29.395Z,83.13
2019-02-25T03:22:58.494Z,81.83
2019-02-25T03:25:27.576Z,70.17
2019-02-25T03:27:56.669Z,78.03
2019-02-25T03:30:25.560Z,75.07
2019-02-25T03:32:54.556Z,77.17
2019-02-25T03:35:23.646Z,71.27
2019-02-25T03:37:52.656Z,82.37
2019-02-25T03:40:24.797Z,81.03
2019-02-25T03:42:53.900Z,80.17
2019-02-25T03:45:23.012Z,65.00
2019-02-25T03:47:52.089Z,70.73
2019-02-25T03:50:21.185Z,76.67
2019-02-25T03:52:50.277Z,72.17
2019-02-25T03:55:20.945Z,67.37
2019-02-25T03:57:50.110Z,63.83
2019-02-25T04:00:22.271Z,61.97
2019-02-25T04:02:51.563Z,66.23
2019-02-25T04:05:20.464Z,64.00
2019-02-25T04:07:49.761Z,71.77
2019-02-25T04:10:18.753Z,63.97
2019-02-25T04:12:47.742Z,60.17
2019-02-25T04:15:22.059Z,50.70
2019-02-25T04:17:51.455Z,44.90
2019-02-25T04:20:20.557Z,49.23
2019-02-25T04:22:49.652Z,44.67
2019-02-25T04:25:18.745Z,38.60
2019-02-25T04:27:47.840Z,32.60
2019-02-25T04:30:17.416Z,36.90
2019-02-25T04:32:46.442Z,36.97
2019-02-25T04:35:15.430Z,30.83
2019-02-25T04:37:44.524Z,34.23
2019-02-25T04:40:14.394Z,34.40
2019-02-25T04:42:43.381Z,55.60
2019-02-25T04:45:19.693Z,53.70
2019-02-25T04:47:48.787Z,44.07
2019-02-25T04:50:17.776Z,39.33
2019-02-25T04:52:46.771Z,35.80
2019-02-25T04:55:16.658Z,35.37
2019-02-25T04:57:45.780Z,36.57
2019-02-25T05:00:22.696Z,40.30
2019-02-25T05:02:51.855Z,34.97
2019-02-25T05:05:20.951Z,36.93
2019-02-25T05:07:50.043Z,40.30
2019-02-25T05:10:19.714Z,44.60
2019-02-25T05:12:59.699Z,46.53
2019-02-25T05:15:30.329Z,49.23
2019-02-25T05:17:59.322Z,48.57
2019-02-25T05:20:28.315Z,45.63
2019-02-25T05:22:57.409Z,49.07
2019-02-25T05:25:26.507Z,45.57
2019-02-25T05:27:55.527Z,60.27
2019-02-25T05:30:24.479Z,58.00
2019-02-25T05:32:53.474Z,63.83
2019-02-25T05:35:22.471Z,54.77
2019-02-25T05:37:51.462Z,65.60
2019-02-25T05:40:21.078Z,54.90
2019-02-25T05:42:50.164Z,47.93
2019-02-25T05:45:19.259Z,48.03
2019-02-25T05:47:48.357Z,51.20
2019-02-25T05:50:21.005Z,56.00
2019-02-25T05:52:49.920Z,57.20
2019-02-25T05:55:19.018Z,62.50
2019-02-25T05:57:48.008Z,46.47
2019-02-25T06:00:20.560Z,46.03
2019-02-25T06:02:49.489Z,43.50
2019-02-25T06:05:18.464Z,46.43
2019-02-25T06:07:47.355Z,45.70
2019-02-25T06:10:16.346Z,49.00
2019-02-25T06:12:45.339Z,54.70
2019-02-25T06:15:17.098Z,43.87
2019-02-25T06:17:46.090Z,45.90
2019-02-25T06:20:15.938Z,40.73
2019-02-25T06:22:44.892Z,44.90
2019-02-25T06:25:14.799Z,54.47
2019-02-25T06:27:43.791Z,92.63
2019-02-25T06:30:20.979Z,59.43
2019-02-25T06:32:49.967Z,42.27
2019-02-25T06:35:19.070Z,53.27
2019-02-25T06:37:48.066Z,44.07
2019-02-25T06:40:20.790Z,38.33
2019-02-25T06:42:49.935Z,40.23
2019-02-25T06:45:21.596Z,38.10
2019-02-25T06:47:50.683Z,37.07
2019-02-25T06:50:19.677Z,51.33
2019-02-25T06:52:48.668Z,42.07
2019-02-25T06:55:17.967Z,41.83
2019-02-25T06:57:47.062Z,47.57
2019-02-25T07:00:18.309Z,47.63
2019-02-25T07:02:47.298Z,40.23
2019-02-25T07:05:26.736Z,47.67
2019-02-25T07:08:12.214Z,39.43
2019-02-25T07:10:51.854Z,37.77
2019-02-25T07:13:25.250Z,36.67
2019-02-25T07:16:11.441Z,34.63
2019-02-25T07:18:42.077Z,37.83
2019-02-25T07:21:12.710Z,44.67
2019-02-25T07:24:01.870Z,40.03
2019-02-25T07:26:38.346Z,37.83
2019-02-25T07:29:27.300Z,34.40
2019-02-25T07:31:58.033Z,37.83
2019-02-25T07:34:28.560Z,34.63
2019-02-25T07:37:02.127Z,35.40
2019-02-25T07:39:38.401Z,39.07
2019-02-25T07:42:12.118Z,37.17
2019-02-25T07:44:48.796Z,40.53
2019-02-25T07:47:22.398Z,41.13
2019-02-25T07:50:01.732Z,36.07
2019-02-25T07:52:32.464Z,36.90
2019-02-25T07:55:06.153Z,45.43
2019-02-25T07:57:36.900Z,35.93
2019-02-25T08:00:09.275Z,45.20
2019-02-25T08:02:39.901Z,37.77
2019-02-25T08:05:10.777Z,38.50
2019-02-25T08:07:47.100Z,41.33
2019-02-25T08:10:17.560Z,47.23
2019-02-25T08:13:03.444Z,38.47
2019-02-25T08:15:50.328Z,41.87
2019-02-25T08:18:20.871Z,56.30
2019-02-25T08:20:51.484Z,52.97
2019-02-25T08:23:38.313Z,43.50
2019-02-25T08:26:14.790Z,37.60
2019-02-25T08:28:45.406Z,38.13
2019-02-25T08:31:18.707Z,39.80
2019-02-25T08:33:49.315Z,38.23
2019-02-25T08:37:02.354Z,41.67
2019-02-25T08:39:35.213Z,40.20
2019-02-25T08:42:17.834Z,39.80
2019-02-25T08:45:04.952Z,38.30
2019-02-25T08:47:35.545Z,41.37
2019-02-25T08:50:06.764Z,41.70
2019-02-25T08:52:35.717Z,45.07
2019-02-25T08:55:05.931Z,45.03
2019-02-25T08:57:35.031Z,45.07
2019-02-25T09:00:05.261Z,43.93
2019-02-25T09:02:34.244Z,49.10
2019-02-25T09:05:03.443Z,52.43
2019-02-25T09:07:32.536Z,49.57
2019-02-25T09:10:01.631Z,52.63
2019-02-25T09:12:30.727Z,54.63
2019-02-25T09:14:59.823Z,52.00
2019-02-25T09:17:29.016Z,51.03
2019-02-25T09:19:58.116Z,54.90
2019-02-25T09:22:27.099Z,50.93
2019-02-25T09:24:56.086Z,51.70
2019-02-25T09:27:25.189Z,46.47
2019-02-25T09:29:54.294Z,52.97
2019-02-25T09:32:23.277Z,48.73
2019-02-25T09:34:52.269Z,49.73
2019-02-25T09:37:22.142Z,50.47
2019-02-25T09:39:52.059Z,49.07
2019-02-25T09:42:21.063Z,49.97
2019-02-25T09:44:50.034Z,53.53
2019-02-25T09:47:18.924Z,59.03
2019-02-25T09:49:47.962Z,54.13
2019-02-25T09:52:18.181Z,47.60
2019-02-25T09:54:47.277Z,57.83
2019-02-25T09:57:16.476Z,54.83
2019-02-25T09:59:45.363Z,60.40
2019-02-25T10:02:14.357Z,55.47
2019-02-25T10:04:43.347Z,60.27
2019-02-25T10:07:12.441Z,60.43
2019-02-25T10:09:41.435Z,71.43
2019-02-25T10:12:10.425Z,76.63
2019-02-25T10:14:39.522Z,80.57
2019-02-25T10:17:08.507Z,82.10
2019-02-25T10:19:37.610Z,78.00
2019-02-25T10:22:06.594Z,80.77
2019-02-25T10:24:35.621Z,72.27
2019-02-25T10:27:04.685Z,76.63
2019-02-25T10:29:35.136Z,85.67
2019-02-25T10:32:06.111Z,87.77
2019-02-25T10:34:34.844Z,93.43
2019-02-25T10:37:03.764Z,95.70
2019-02-25T10:39:32.640Z,92.97
2019-02-25T10:42:01.755Z,100.40
2019-02-25T10:44:31.886Z,99.50
2019-02-25T10:47:02.048Z,101.87
2019-02-25T10:49:31.913Z,101.67
2019-02-25T10:52:01.763Z,98.53
2019-02-25T10:54:30.768Z,100.77
2019-02-25T10:56:59.833Z,95.83
2019-02-25T10:59:29.913Z,96.93
2019-02-25T11:01:59.386Z,99.80
2019-02-25T11:04:28.391Z,112.03
2019-02-25T11:06:58.499Z,116.67
2019-02-25T11:09:29.536Z,117.20
2019-02-25T11:12:00.156Z,107.40
2019-02-25T11:14:31.121Z,103.57
2019-02-25T11:17:00.096Z,96.67
2019-02-25T11:19:30.717Z,98.33
2019-02-25T11:22:00.026Z,104.77
2019-02-25T11:24:29.016Z,107.13
2019-02-25T11:26:59.061Z,103.83
2019-02-25T11:29:28.639Z,96.33
2019-02-25T11:31:57.731Z,95.20
2019-02-25T11:34:26.827Z,90.57
2019-02-25T11:36:57.172Z,81.20
2019-02-25T11:39:27.588Z,91.97
2019-02-25T11:41:57.285Z,90.00
2019-02-25T11:44:30.476Z,97.43
2019-02-25T11:46:58.126Z,88.77
2019-02-25T11:49:27.052Z,91.90
2019-02-25T11:51:56.126Z,91.20
2019-02-25T11:54:25.217Z,100.97
2019-02-25T11:56:54.308Z,105.67
2019-02-25T11:59:23.300Z,106.60
2019-02-25T12:01:52.292Z,104.70
2019-02-25T12:04:21.432Z,107.50
2019-02-25T12:06:50.482Z,106.13
2019-02-25T12:09:19.474Z,99.93
2019-02-25T12:11:48.568Z,104.27
2019-02-25T12:14:17.668Z,101.73
2019-02-25T12:16:46.656Z,99.50
2019-02-25T12:19:17.856Z,98.23
2019-02-25T12:21:46.278Z,98.27
2019-02-25T12:24:15.379Z,101.63
2019-02-25T12:26:44.467Z,101.23
2019-02-25T12:29:13.563Z,94.17
2019-02-25T12:31:42.664Z,95.43
2019-02-25T12:34:11.754Z,93.07
2019-02-25T12:36:40.846Z,93.33
2019-02-25T12:39:09.941Z,87.43
2019-02-25T12:41:39.035Z,91.60
2019-02-25T12:44:08.131Z,87.27
2019-02-25T12:46:37.124Z,84.17
2019-02-25T12:49:06.218Z,83.97
2019-02-25T12:51:35.310Z,78.77
2019-02-25T12:54:04.405Z,78.33
2019-02-25T12:56:33.395Z,80.90
2019-02-25T12:59:02.379Z,81.20
2019-02-25T13:01:31.483Z,79.87
2019-02-25T13:04:00.593Z,77.83
2019-02-25T13:06:29.574Z,83.47
2019-02-25T13:08:58.662Z,82.33
2019-02-25T13:11:27.747Z,82.67
2019-02-25T13:13:56.751Z,75.43
2019-02-25T13:16:25.848Z,76.40
2019-02-25T13:18:54.838Z,79.43
2019-02-25T13:21:23.823Z,66.03
2019-02-25T13:23:54.630Z,65.10
2019-02-25T13:26:23.552Z,59.43
2019-02-25T13:28:52.661Z,58.03
2019-02-25T13:31:22.049Z,61.90
2019-02-25T13:33:51.036Z,62.53
2019-02-25T13:36:20.137Z,60.17
2019-02-25T13:38:49.127Z,61.57
2019-02-25T13:41:18.326Z,62.43
2019-02-25T13:43:47.517Z,63.60
2019-02-25T13:46:16.617Z,66.23
2019-02-25T13:48:45.914Z,60.27
2019-02-25T13:51:15.008Z,59.87
2019-02-25T13:53:44.205Z,60.80
2019-02-25T13:56:13.302Z,62.53
2019-02-25T13:58:42.284Z,61.93
2019-02-25T14:01:13.021Z,58.47
2019-02-25T14:03:42.226Z,59.37
2019-02-25T14:06:11.625Z,59.70
2019-02-25T14:08:40.721Z,58.83
2019-02-25T14:11:09.711Z,58.60
2019-02-25T14:13:38.711Z,58.43
2019-02-25T14:16:07.695Z,61.03
2019-02-25T14:18:36.791Z,55.97
2019-02-25T14:21:06.194Z,56.33
2019-02-25T14:23:35.388Z,56.50
2019-02-25T14:26:04.486Z,55.20
2019-02-25T14:28:33.578Z,56.50
2019-02-25T14:31:02.778Z,55.13
2019-02-25T14:33:35.592Z,56.87
2019-02-25T14:36:02.500Z,58.83
2019-02-25T14:38:32.300Z,52.37
2019-02-25T14:41:04.526Z,59.77
2019-02-25T14:43:36.540Z,61.87
2019-02-25T14:46:04.824Z,62.67
2019-02-25T14:48:35.262Z,63.47
2019-02-25T14:51:05.046Z,62.07
2019-02-25T14:53:34.150Z,65.50
2019-02-25T14:56:04.088Z,60.87
2019-02-25T14:58:35.534Z,58.50
2019-02-25T15:01:05.428Z,58.13
2019-02-25T15:03:34.622Z,61.93
2019-02-25T15:06:03.822Z,63.57
2019-02-25T15:08:32.913Z,58.20
2019-02-25T15:11:02.366Z,58.90
2019-02-25T15:13:32.845Z,62.83
2019-02-25T15:16:03.372Z,59.37
2019-02-25T15:18:32.568Z,65.47
2019-02-25T15:21:02.399Z,59.13
2019-02-25T15:23:31.793Z,60.90
2019-02-25T15:26:05.161Z,59.77
2019-02-25T15:28:30.965Z,59.63
2019-02-25T15:31:00.012Z,56.67
2019-02-25T15:33:31.385Z,60.27
2019-02-25T15:36:01.387Z,59.53
2019-02-25T15:38:31.113Z,62.83
2019-02-25T15:41:02.154Z,64.30
2019-02-25T15:43:31.139Z,61.13
2019-02-25T15:45:59.923Z,66.13
2019-02-25T15:48:29.033Z,61.23
2019-02-25T15:51:00.780Z,60.73
2019-02-25T15:53:30.673Z,62.83
2019-02-25T15:56:01.522Z,62.20
2019-02-25T15:58:30.066Z,62.67
2019-02-25T16:00:58.847Z,68.47
2019-02-25T16:03:27.705Z,67.43
2019-02-25T16:05:59.325Z,60.83
2019-02-25T16:08:28.649Z,63.80
2019-02-25T16:10:58.322Z,61.90
2019-02-25T16:13:27.959Z,68.07
2019-02-25T16:15:56.572Z,63.40
2019-02-25T16:18:27.834Z,67.10
2019-02-25T16:20:57.552Z,66.73
2019-02-25T16:23:27.867Z,70.23
2019-02-25T16:25:57.368Z,63.70
2019-02-25T16:28:25.975Z,65.57
2019-02-25T16:30:54.693Z,64.33
2019-02-25T16:33:24.057Z,63.20
2019-02-25T16:35:53.638Z,69.80
2019-02-25T16:38:24.895Z,68.50
2019-02-25T16:40:54.596Z,73.47
2019-02-25T16:43:23.174Z,63.00
2019-02-25T16:45:52.805Z,67.93
2019-02-25T16:48:24.232Z,63.37
2019-02-25T16:50:51.783Z,66.23
2019-02-25T16:53:20.509Z,69.97
2019-02-25T16:55:49.822Z,69.37
2019-02-25T16:58:19.582Z,71.43
2019-02-25T17:00:48.154Z,69.93
2019-02-25T17:03:16.951Z,65.80
2019-02-25T17:05:47.784Z,71.57
2019-02-25T17:08:17.534Z,70.33
2019-02-25T17:10:46.112Z,77.50
2019-02-25T17:13:15.439Z,77.00
2019-02-25T17:15:46.443Z,81.60
2019-02-25T17:18:16.007Z,72.67
2019-02-25T17:21:05.166Z,77.77
2019-02-25T17:23:36.533Z,79.63
2019-02-25T17:26:07.383Z,77.10
2019-02-25T17:28:35.868Z,79.17
2019-02-25T17:31:06.055Z,79.43
2019-02-25T17:33:35.203Z,82.07
2019-02-25T17:36:06.226Z,76.03
2019-02-25T17:38:36.176Z,76.03
2019-02-25T17:41:06.307Z,77.50
2019-02-25T17:43:36.457Z,75.23
2019-02-25T17:46:06.984Z,77.93
2019-02-25T17:48:36.145Z,79.27
2019-02-25T17:51:04.983Z,80.03
2019-02-25T17:53:33.570Z,82.63
2019-02-25T17:56:02.243Z,82.80
2019-02-25T17:58:30.930Z,83.27
2019-02-25T18:01:01.062Z,82.53
2019-02-25T18:03:30.742Z,79.90
2019-02-25T18:06:00.705Z,82.43
2019-02-25T18:08:30.449Z,74.67
2019-02-25T18:11:00.604Z,80.00
2019-02-25T18:13:30.734Z,78.00
2019-02-25T18:16:00.535Z,81.67
2019-02-25T18:18:29.529Z,78.57
2019-02-25T18:20:58.621Z,77.27
2019-02-25T18:23:27.716Z,75.20
2019-02-25T18:25:58.547Z,82.53
2019-02-25T18:28:27.556Z,80.90
2019-02-25T18:30:59.658Z,87.97
2019-02-25T18:33:29.004Z,84.97
2019-02-25T18:35:59.791Z,82.93
2019-02-25T18:38:29.561Z,85.13
2019-02-25T18:41:00.428Z,84.47
2019-02-25T18:43:30.350Z,78.30
2019-02-25T18:46:00.549Z,81.30
2019-02-25T18:48:30.235Z,79.00
2019-02-25T18:51:00.962Z,82.83
2019-02-25T18:53:29.958Z,88.90
2019-02-25T18:55:59.040Z,86.80
2019-02-25T18:58:28.038Z,82.10
2019-02-25T19:00:57.270Z,85.63
2019-02-25T19:03:26.945Z,84.47
2019-02-25T19:05:57.455Z,85.30
2019-02-25T19:08:28.918Z,85.77
2019-02-25T19:10:57.714Z,89.93
2019-02-25T19:13:27.674Z,89.70
2019-02-25T19:15:59.159Z,90.10
2019-02-25T19:18:29.414Z,88.23
2019-02-25T19:20:59.675Z,91.33
2019-02-25T19:23:31.244Z,87.43
2019-02-25T19:26:00.067Z,90.53
2019-02-25T19:28:30.337Z,88.23
2019-02-25T19:30:59.689Z,89.63
2019-02-25T19:33:28.681Z,86.13
2019-02-25T19:35:58.789Z,90.73
2019-02-25T19:38:31.998Z,95.23
2019-02-25T19:40:59.243Z,89.87
2019-02-25T19:43:28.346Z,89.50
2019-02-25T19:45:59.028Z,88.07
2019-02-25T19:48:29.401Z,84.00
2019-02-25T19:50:59.615Z,83.93
2019-02-25T19:53:31.383Z,90.53
2019-02-25T19:56:00.155Z,86.87
2019-02-25T19:58:31.622Z,92.27
2019-02-25T20:01:06.242Z,91.03
2019-02-25T20:03:37.564Z,88.07
2019-02-25T20:06:11.222Z,91.80
2019-02-25T20:08:37.508Z,87.33
2019-02-25T20:11:09.309Z,88.77
2019-02-25T20:13:37.645Z,90.60
2019-02-25T20:16:08.186Z,84.83
2019-02-25T20:18:37.659Z,90.30
2019-02-25T20:21:08.210Z,86.23
2019-02-25T20:23:37.396Z,98.00
2019-02-25T20:26:06.391Z,91.43
2019-02-25T20:28:35.379Z,93.90
2019-02-25T20:31:05.826Z,96.33
2019-02-25T20:33:36.811Z,96.33
2019-02-25T20:36:05.942Z,93.23
2019-02-25T20:38:37.058Z,97.13
2019-02-25T20:41:05.665Z,99.63
2019-02-25T20:43:34.760Z,97.77
2019-02-25T20:46:05.927Z,104.47
2019-02-25T20:48:34.486Z,103.80
2019-02-25T20:51:04.742Z,98.00
2019-02-25T20:53:34.106Z,103.97
2019-02-25T20:56:03.201Z,103.13
2019-02-25T20:58:32.298Z,101.77
2019-02-25T21:01:05.278Z,100.80
2019-02-25T21:03:32.020Z,103.43
2019-02-25T21:06:02.559Z,102.33
2019-02-25T21:08:31.952Z,109.20
2019-02-25T21:11:02.460Z,109.40
2019-02-25T21:13:33.403Z,110.37
2019-02-25T21:16:02.707Z,114.33
2019-02-25T21:18:32.733Z,114.00
2019-02-25T21:21:01.728Z,115.47
2019-02-25T21:23:30.887Z,132.47
2019-02-25T21:26:02.295Z,117.97
2019-02-25T21:28:31.419Z,112.37
2019-02-25T21:31:01.379Z,110.90
2019-02-25T21:33:30.507Z,108.63
2019-02-25T21:35:59.575Z,110.93
2019-02-25T21:38:30.272Z,124.53
2019-02-25T21:40:59.303Z,122.27
2019-02-25T21:43:29.068Z,123.70
2019-02-25T21:46:00.891Z,109.90
2019-02-25T21:48:31.835Z,103.97
2019-02-25T21:51:02.211Z,109.73
2019-02-25T21:53:30.298Z,111.37
2019-02-25T21:56:04.240Z,124.60
2019-02-25T21:58:29.919Z,118.13
2019-02-25T22:00:59.014Z,119.07
2019-02-25T22:03:28.109Z,122.13
2019-02-25T22:05:58.784Z,118.30
2019-02-25T22:08:29.107Z,120.70
2019-02-25T22:11:11.762Z,127.67
2019-02-25T22:13:29.188Z,122.33
2019-02-25T22:15:59.150Z,128.27
2019-02-25T22:18:29.849Z,125.47
2019-02-25T22:20:59.566Z,130.63
2019-02-25T22:23:30.478Z,128.53
2019-02-25T22:25:59.275Z,118.20
2019-02-25T22:28:28.868Z,120.27
2019-02-25T22:30:58.899Z,125.97
2019-02-25T22:33:28.962Z,111.40
2019-02-25T22:35:58.624Z,126.07
2019-02-25T22:38:27.618Z,118.87
2019-02-25T22:40:59.443Z,124.63
2019-02-25T22:43:27.444Z,127.27
2019-02-25T22:45:59.954Z,134.63
2019-02-25T22:48:27.070Z,126.53
2019-02-25T22:50:57.772Z,132.20
2019-02-25T22:53:28.082Z,135.83
2019-02-25T22:55:58.958Z,123.53
2019-02-25T22:58:28.260Z,136.57
2019-02-25T23:01:00.219Z,125.97
2019-02-25T23:03:29.210Z,130.50
2019-02-25T23:05:58.305Z,129.70
2019-02-25T23:08:27.404Z,134.37
2019-02-25T23:10:56.597Z,132.17
2019-02-25T23:13:27.510Z,128.67
2019-02-25T23:15:56.321Z,127.17
2019-02-25T23:18:27.949Z,129.07
2019-02-25T23:20:59.758Z,126.50
2019-02-25T23:23:28.142Z,138.00
2019-02-25T23:25:58.469Z,130.10
2019-02-25T23:28:28.565Z,128.37
2019-02-25T23:30:58.362Z,127.27
2019-02-25T23:33:27.458Z,137.53
2019-02-25T23:35:56.549Z,128.03
2019-02-25T23:38:25.647Z,132.70
2019-02-25T23:40:54.634Z,131.83
2019-02-25T23:43:23.735Z,135.23
2019-02-25T23:45:52.964Z,128.80
2019-02-25T23:48:21.933Z,136.27
2019-02-25T23:50:52.666Z,134.43
2019-02-25T23:53:21.645Z,128.43
2019-02-25T23:55:52.068Z,131.27
2019-02-25T23:58:23.640Z,146.27
